createdAt,value
2022-11-18T00:02:10.958Z,1.61
2022-11-18T00:04:34.557Z,1.67
2022-11-18T00:06:58.261Z,1.51
2022-11-18T00:09:22.069Z,1.63
2022-11-18T00:12:02.952Z,1.70
2022-11-18T00:14:27.851Z,1.54
2022-11-18T00:16:55.741Z,1.65
2022-11-18T00:19:20.222Z,1.59
2022-11-18T00:21:44.023Z,1.66
2022-11-18T00:24:08.359Z,1.55
2022-11-18T00:26:31.884Z,1.61
2022-11-18T00:28:55.511Z,1.66
2022-11-18T00:31:19.065Z,1.60
2022-11-18T00:33:44.235Z,1.61
2022-11-18T00:36:10.555Z,1.55
2022-11-18T00:38:34.458Z,1.53
2022-11-18T00:41:02.887Z,1.23
2022-11-18T00:43:25.430Z,1.51
2022-11-18T00:45:48.962Z,1.73
2022-11-18T00:48:12.603Z,1.29
2022-11-18T00:50:37.558Z,1.53
2022-11-18T00:53:01.127Z,1.64
2022-11-18T00:55:24.630Z,1.69
2022-11-18T00:57:48.270Z,1.37
2022-11-18T01:00:12.851Z,1.30
2022-11-18T01:02:36.530Z,1.32
2022-11-18T01:05:00.053Z,1.32
2022-11-18T01:07:25.156Z,1.27
2022-11-18T01:09:48.741Z,1.17
2022-11-18T01:12:30.432Z,1.22
2022-11-18T01:14:54.015Z,1.17
2022-11-18T01:17:17.554Z,0.94
2022-11-18T01:19:41.157Z,1.15
2022-11-18T01:22:04.854Z,1.02
2022-11-18T01:24:30.055Z,1.20
2022-11-18T01:26:53.555Z,1.07
2022-11-18T01:29:17.446Z,0.81
2022-11-18T01:31:55.706Z,1.10
2022-11-18T01:34:24.807Z,1.17
2022-11-18T01:36:48.302Z,1.28
2022-11-18T01:39:11.969Z,0.99
2022-11-18T01:41:37.012Z,1.06
2022-11-18T01:44:03.063Z,0.93
2022-11-18T01:46:28.861Z,1.04
2022-11-18T01:48:59.911Z,1.03
2022-11-18T01:51:28.367Z,1.04
2022-11-18T01:54:00.097Z,1.02
2022-11-18T01:56:29.942Z,1.14
2022-11-18T01:58:59.250Z,0.88
2022-11-18T02:01:23.104Z,1.23
2022-11-18T02:03:48.024Z,1.10
2022-11-18T02:06:12.610Z,0.91
2022-11-18T02:08:37.576Z,1.04
2022-11-18T02:11:01.232Z,1.06
2022-11-18T02:13:25.711Z,1.25
2022-11-18T02:16:01.999Z,0.65
2022-11-18T02:18:39.486Z,0.85
2022-11-18T02:21:17.992Z,0.83
2022-11-18T02:24:28.081Z,0.64
2022-11-18T02:28:00.131Z,0.56
2022-11-18T02:30:25.455Z,0.86
2022-11-18T02:32:56.042Z,0.78
2022-11-18T02:35:27.977Z,0.86
2022-11-18T02:37:57.138Z,0.94
2022-11-18T02:40:26.392Z,0.88
2022-11-18T02:42:55.770Z,0.78
2022-11-18T02:45:23.984Z,0.82
2022-11-18T02:47:51.068Z,0.90
2022-11-18T02:50:20.121Z,0.70
2022-11-18T02:52:46.931Z,0.58
2022-11-18T02:55:13.795Z,0.77
2022-11-18T02:57:38.961Z,0.88
2022-11-18T03:00:02.714Z,0.93
2022-11-18T03:02:27.928Z,0.70
2022-11-18T03:04:56.781Z,0.69
2022-11-18T03:07:27.822Z,0.85
2022-11-18T03:09:53.854Z,0.83
2022-11-18T03:12:26.311Z,0.84
2022-11-18T03:15:00.404Z,0.40
2022-11-18T03:17:35.717Z,0.49
2022-11-18T03:20:12.549Z,0.63
2022-11-18T03:22:42.972Z,0.62
2022-11-18T03:25:13.661Z,0.40
2022-11-18T03:27:41.855Z,0.69
2022-11-18T03:30:10.634Z,0.35
2022-11-18T03:32:40.957Z,0.58
2022-11-18T03:35:08.935Z,0.63
2022-11-18T03:37:35.774Z,0.77
2022-11-18T03:40:04.537Z,0.63
2022-11-18T03:42:33.994Z,0.86
2022-11-18T03:45:02.988Z,0.79
2022-11-18T03:47:33.063Z,0.72
2022-11-18T03:50:05.599Z,0.79
2022-11-18T03:52:33.415Z,0.76
2022-11-18T03:55:01.495Z,0.71
2022-11-18T03:57:33.767Z,0.41
2022-11-18T04:00:08.121Z,0.46
2022-11-18T04:02:32.360Z,0.53
2022-11-18T04:05:00.732Z,0.40
2022-11-18T04:07:29.063Z,0.46
2022-11-18T04:09:59.453Z,0.25
2022-11-18T04:12:24.431Z,0.37
2022-11-18T04:14:49.897Z,0.41
2022-11-18T04:17:16.086Z,0.44
2022-11-18T04:19:39.710Z,0.40
2022-11-18T04:22:05.168Z,0.50
2022-11-18T04:24:28.733Z,0.45
2022-11-18T04:26:52.312Z,0.40
2022-11-18T04:29:16.231Z,0.47
2022-11-18T04:31:40.375Z,0.61
2022-11-18T04:34:04.013Z,0.41
2022-11-18T04:36:27.619Z,0.33
2022-11-18T04:38:52.532Z,0.18
2022-11-18T04:41:16.158Z,0.26
2022-11-18T04:43:40.073Z,0.43
2022-11-18T04:46:03.731Z,0.27
2022-11-18T04:48:27.244Z,0.45
2022-11-18T04:50:50.831Z,0.35
2022-11-18T04:53:14.349Z,0.66
2022-11-18T04:55:39.351Z,0.44
2022-11-18T04:58:02.922Z,0.43
2022-11-18T05:00:26.559Z,0.30
2022-11-18T05:02:50.468Z,0.45
2022-11-18T05:05:14.114Z,0.50
2022-11-18T05:07:37.756Z,0.35
2022-11-18T05:10:01.468Z,0.30
2022-11-18T05:12:43.699Z,0.04
2022-11-18T05:15:08.734Z,-0.22
2022-11-18T05:17:32.245Z,0.18
2022-11-18T05:19:55.900Z,0.36
2022-11-18T05:22:19.566Z,0.15
2022-11-18T05:24:43.238Z,0.08
2022-11-18T05:27:06.903Z,0.14
2022-11-18T05:29:31.895Z,0.27
2022-11-18T05:31:55.392Z,0.31
2022-11-18T05:34:20.294Z,0.25
2022-11-18T05:36:44.106Z,0.32
2022-11-18T05:39:07.755Z,-0.02
2022-11-18T05:41:48.590Z,0.24
2022-11-18T05:44:12.330Z,-0.05
2022-11-18T05:46:37.282Z,0.14
2022-11-18T05:49:00.859Z,0.02
2022-11-18T05:51:24.515Z,-0.17
2022-11-18T05:53:50.286Z,-0.25
2022-11-18T05:56:20.961Z,0.12
2022-11-18T05:58:44.563Z,0.02
2022-11-18T06:01:09.995Z,-0.09
2022-11-18T06:03:39.913Z,-0.02
2022-11-18T06:06:05.274Z,-0.10
2022-11-18T06:08:35.852Z,-0.03
2022-11-18T06:11:00.101Z,-0.22
2022-11-18T06:13:29.005Z,-0.31
2022-11-18T06:15:52.672Z,-0.24
2022-11-18T06:18:23.907Z,-0.09
2022-11-18T06:20:49.540Z,-0.24
2022-11-18T06:23:13.679Z,-0.32
2022-11-18T06:25:40.052Z,-0.18
2022-11-18T06:28:04.188Z,-0.26
2022-11-18T06:30:27.862Z,-0.02
2022-11-18T06:32:51.421Z,-0.22
2022-11-18T06:35:15.207Z,-0.19
2022-11-18T06:37:40.118Z,-0.17
2022-11-18T06:40:04.562Z,-0.46
2022-11-18T06:42:46.889Z,-0.22
2022-11-18T06:45:11.902Z,-0.24
2022-11-18T06:47:35.513Z,0.10
2022-11-18T06:49:59.091Z,-0.38
2022-11-18T06:52:23.726Z,-0.30
2022-11-18T06:54:48.729Z,-0.32
2022-11-18T06:57:12.280Z,-0.36
2022-11-18T06:59:35.871Z,-0.21
2022-11-18T07:01:59.373Z,-0.44
2022-11-18T07:04:22.977Z,-0.20
2022-11-18T07:06:46.508Z,-0.31
2022-11-18T07:09:10.153Z,-0.33
2022-11-18T07:11:35.358Z,-0.06
2022-11-18T07:13:58.983Z,-0.19
2022-11-18T07:16:24.358Z,-0.21
2022-11-18T07:18:49.777Z,-0.27
2022-11-18T07:21:15.335Z,-0.43
2022-11-18T07:23:39.439Z,-0.33
2022-11-18T07:26:03.777Z,-0.38
2022-11-18T07:28:30.146Z,-0.41
2022-11-18T07:30:54.040Z,-0.49
2022-11-18T07:33:17.652Z,-0.54
2022-11-18T07:35:41.165Z,-0.36
2022-11-18T07:38:04.735Z,-0.42
2022-11-18T07:40:28.311Z,-0.50
2022-11-18T07:42:51.918Z,-0.34
2022-11-18T07:45:23.610Z,-0.58
2022-11-18T07:47:47.320Z,-0.43
2022-11-18T07:50:11.030Z,-0.51
2022-11-18T07:52:34.694Z,-0.33
2022-11-18T07:54:58.220Z,-0.49
2022-11-18T07:57:21.804Z,-0.45
2022-11-18T07:59:45.368Z,-0.56
2022-11-18T08:02:12.991Z,-0.60
2022-11-18T08:04:38.823Z,-0.72
2022-11-18T08:07:02.527Z,-0.33
2022-11-18T08:09:26.136Z,-0.35
2022-11-18T08:11:49.789Z,-0.44
2022-11-18T08:14:13.326Z,-0.30
2022-11-18T08:16:36.953Z,-0.46
2022-11-18T08:19:02.007Z,-0.57
2022-11-18T08:21:25.699Z,-0.23
2022-11-18T08:23:51.852Z,-0.40
2022-11-18T08:26:16.392Z,-0.53
2022-11-18T08:28:40.175Z,-0.31
2022-11-18T08:31:11.790Z,-0.69
2022-11-18T08:33:35.393Z,-0.49
2022-11-18T08:36:00.577Z,-0.46
2022-11-18T08:38:24.380Z,-0.72
2022-11-18T08:40:49.569Z,-0.82
2022-11-18T08:43:13.473Z,-0.59
2022-11-18T08:45:39.118Z,-0.39
2022-11-18T08:48:02.742Z,-0.65
2022-11-18T08:50:26.261Z,-0.62
2022-11-18T08:52:51.320Z,-0.53
2022-11-18T08:55:14.845Z,-0.55
2022-11-18T08:57:38.459Z,-0.22
2022-11-18T09:00:01.974Z,-0.27
2022-11-18T09:02:26.101Z,-0.62
2022-11-18T09:04:50.480Z,-0.62
2022-11-18T09:07:14.127Z,-0.61
2022-11-18T09:09:39.103Z,-0.50
2022-11-18T09:12:02.709Z,-0.38
2022-11-18T09:15:12.538Z,-0.47
2022-11-18T09:17:10.892Z,-0.40
2022-11-18T09:19:49.761Z,-0.57
2022-11-18T09:22:13.504Z,-0.52
2022-11-18T09:24:39.766Z,-0.32
2022-11-18T09:27:05.525Z,-0.17
2022-11-18T09:29:29.092Z,-0.30
2022-11-18T09:31:52.831Z,-0.14
2022-11-18T09:34:16.566Z,-0.06
2022-11-18T09:36:40.305Z,-0.33
2022-11-18T09:39:03.897Z,-0.53
2022-11-18T09:41:45.937Z,-0.37
2022-11-18T09:44:22.157Z,-0.47
2022-11-18T09:47:01.253Z,-0.40
2022-11-18T09:49:30.796Z,-0.29
2022-11-18T09:51:55.749Z,-0.41
2022-11-18T09:54:23.143Z,-0.36
2022-11-18T09:56:48.749Z,-0.50
2022-11-18T09:59:15.333Z,-0.40
2022-11-18T10:01:38.978Z,-0.55
2022-11-18T10:04:02.622Z,-0.51
2022-11-18T10:06:30.423Z,-0.24
2022-11-18T10:09:13.481Z,-0.26
2022-11-18T10:11:51.609Z,-0.05
2022-11-18T10:14:34.319Z,-0.20
2022-11-18T10:17:09.127Z,-0.10
2022-11-18T10:19:39.878Z,-0.03
2022-11-18T10:22:23.784Z,-0.28
2022-11-18T10:24:53.492Z,-0.12
2022-11-18T10:27:18.545Z,-0.10
2022-11-18T10:29:44.531Z,-0.02
2022-11-18T10:32:13.637Z,0.18
2022-11-18T10:34:48.640Z,0.02
2022-11-18T10:37:39.016Z,0.19
2022-11-18T10:40:26.260Z,0.25
2022-11-18T10:42:49.869Z,0.13
2022-11-18T10:45:26.396Z,0.11
2022-11-18T10:48:00.694Z,0.05
2022-11-18T10:50:35.579Z,0.06
2022-11-18T10:52:59.170Z,-0.28
2022-11-18T10:55:25.069Z,0.01
2022-11-18T10:57:51.874Z,-0.15
2022-11-18T11:00:41.292Z,0.31
2022-11-18T11:03:36.023Z,0.32
2022-11-18T11:06:34.673Z,0.43
2022-11-18T11:09:05.091Z,0.28
2022-11-18T11:11:31.492Z,0.36
2022-11-18T11:14:02.491Z,0.19
2022-11-18T11:16:28.522Z,0.23
2022-11-18T11:18:57.726Z,0.27
2022-11-18T11:21:25.141Z,0.40
2022-11-18T11:23:48.866Z,0.34
2022-11-18T11:29:20.152Z,0.38
2022-11-18T11:31:59.592Z,0.41
2022-11-18T11:34:30.183Z,0.43
2022-11-18T11:37:03.542Z,0.32
2022-11-18T11:39:49.991Z,0.51
2022-11-18T11:42:30.077Z,1.01
2022-11-18T11:45:11.046Z,0.46
2022-11-18T11:47:50.816Z,0.51
2022-11-18T11:50:21.011Z,0.69
2022-11-18T11:53:00.870Z,0.79
2022-11-18T11:55:33.425Z,1.06
2022-11-18T11:58:17.061Z,0.88
2022-11-18T12:00:46.970Z,1.23
2022-11-18T12:03:53.695Z,1.00
2022-11-18T12:06:17.362Z,1.13
2022-11-18T12:08:54.015Z,0.84
2022-11-18T12:11:28.786Z,0.74
2022-11-18T12:13:58.249Z,0.76
2022-11-18T12:16:29.804Z,1.09
2022-11-18T12:19:00.770Z,1.35
2022-11-18T12:22:09.182Z,1.52
2022-11-18T12:24:40.967Z,1.29
2022-11-18T12:27:12.368Z,1.27
2022-11-18T12:29:44.029Z,1.39
2022-11-18T12:32:29.827Z,1.35
2022-11-18T12:35:00.979Z,1.37
2022-11-18T12:37:58.897Z,1.35
2022-11-18T12:40:47.222Z,0.85
2022-11-18T12:44:06.894Z,1.00
2022-11-18T12:46:55.616Z,0.97
2022-11-18T12:50:13.819Z,1.15
2022-11-18T12:52:56.518Z,0.92
2022-11-18T12:55:27.231Z,0.76
2022-11-18T12:57:51.207Z,0.57
2022-11-18T13:00:30.097Z,0.69
2022-11-18T13:02:56.277Z,0.62
2022-11-18T13:05:24.777Z,0.76
2022-11-18T13:08:11.553Z,0.59
2022-11-18T13:10:39.704Z,0.59
2022-11-18T13:13:04.495Z,0.42
2022-11-18T13:15:46.650Z,0.44
2022-11-18T13:18:16.686Z,0.49
2022-11-18T13:20:43.523Z,0.37
2022-11-18T13:23:45.379Z,0.18
2022-11-18T13:26:17.184Z,0.29
2022-11-18T13:28:59.404Z,0.34
2022-11-18T13:31:33.012Z,0.41
2022-11-18T13:33:56.655Z,0.30
2022-11-18T13:36:23.896Z,0.17
2022-11-18T13:38:58.145Z,0.00
2022-11-18T13:41:24.573Z,-0.02
2022-11-18T13:43:51.513Z,0.11
2022-11-18T13:46:23.137Z,0.23
2022-11-18T13:48:53.051Z,0.06
2022-11-18T13:51:17.015Z,0.11
2022-11-18T13:53:44.518Z,0.16
2022-11-18T13:56:17.738Z,0.22
2022-11-18T14:01:31.471Z,-0.04
2022-11-18T14:03:59.065Z,0.22
2022-11-18T14:06:30.997Z,0.22
2022-11-18T14:09:18.664Z,0.31
2022-11-18T14:11:44.752Z,0.46
2022-11-18T14:14:10.103Z,0.34
2022-11-18T14:16:36.630Z,0.38
2022-11-18T14:19:00.332Z,0.19
2022-11-18T14:21:29.873Z,0.41
2022-11-18T14:23:54.920Z,0.39
2022-11-18T14:26:29.299Z,0.14
2022-11-18T14:28:57.399Z,0.26
2022-11-18T14:31:26.721Z,0.04
2022-11-18T14:34:18.478Z,0.17
2022-11-18T14:36:43.568Z,0.19
2022-11-18T14:39:27.001Z,0.09
2022-11-18T14:41:52.116Z,0.00
2022-11-18T14:44:16.077Z,0.20
2022-11-18T14:46:40.752Z,0.14
2022-11-18T14:49:05.872Z,0.09
2022-11-18T14:51:29.555Z,0.19
2022-11-18T14:53:53.067Z,-0.05
2022-11-18T14:56:27.480Z,-0.22
2022-11-18T14:58:51.153Z,-0.01
2022-11-18T15:01:15.118Z,-0.04
2022-11-18T15:03:38.749Z,-0.22
2022-11-18T15:06:02.968Z,0.04
2022-11-18T15:08:26.575Z,-0.11
2022-11-18T15:10:50.086Z,-0.09
2022-11-18T15:13:15.084Z,-0.24
2022-11-18T15:15:38.616Z,-0.51
2022-11-18T15:18:02.183Z,-0.24
2022-11-18T15:20:25.784Z,-0.26
2022-11-18T15:22:49.393Z,-0.04
2022-11-18T15:25:13.024Z,-0.29
2022-11-18T15:27:37.056Z,-0.37
2022-11-18T15:30:02.391Z,-0.39
2022-11-18T15:32:26.026Z,-0.30
2022-11-18T15:34:52.334Z,-0.36
2022-11-18T15:37:16.109Z,-0.56
2022-11-18T15:39:39.796Z,-0.32
2022-11-18T15:42:03.356Z,-0.33
2022-11-18T15:44:27.143Z,-0.57
2022-11-18T15:46:52.155Z,-0.50
2022-11-18T15:49:17.680Z,-0.58
2022-11-18T15:51:41.523Z,-0.68
2022-11-18T15:54:05.288Z,-0.63
2022-11-18T15:56:31.485Z,-0.68
2022-11-18T15:58:57.435Z,-0.73
2022-11-18T16:01:21.158Z,-0.77
2022-11-18T16:03:46.129Z,-0.80
2022-11-18T16:06:10.146Z,-0.87
2022-11-18T16:08:33.860Z,-0.89
2022-11-18T16:11:15.426Z,-0.92
2022-11-18T16:13:39.010Z,-0.96
2022-11-18T16:16:02.528Z,-1.02
2022-11-18T16:18:26.147Z,-1.11
2022-11-18T16:20:51.679Z,-1.12
2022-11-18T16:23:15.342Z,-1.18
2022-11-18T16:25:44.738Z,-1.19
2022-11-18T16:28:08.306Z,-1.29
2022-11-18T16:30:49.150Z,-1.32
2022-11-18T16:33:12.767Z,-1.36
2022-11-18T16:35:36.321Z,-1.41
2022-11-18T16:38:01.448Z,-1.44
2022-11-18T16:40:25.041Z,-1.50
2022-11-18T16:42:50.718Z,-1.53
2022-11-18T16:45:14.364Z,-1.51
2022-11-18T16:47:39.550Z,-1.61
2022-11-18T16:50:03.682Z,-1.63
2022-11-18T16:52:27.560Z,-1.70
2022-11-18T16:54:53.124Z,-1.68
2022-11-18T16:57:17.025Z,-1.78
2022-11-18T16:59:40.552Z,-1.80
2022-11-18T17:02:04.264Z,-1.84
2022-11-18T17:04:29.823Z,-1.85
2022-11-18T17:06:53.755Z,-1.85
2022-11-18T17:09:20.676Z,-1.93
2022-11-18T17:11:46.170Z,-1.97
2022-11-18T17:14:09.993Z,-2.02
2022-11-18T17:16:33.608Z,-2.04
2022-11-18T17:18:58.930Z,-2.11
2022-11-18T17:21:22.758Z,-2.18
2022-11-18T17:23:47.113Z,-2.19
2022-11-18T17:26:10.816Z,-2.21
2022-11-18T17:28:37.987Z,-2.24
2022-11-18T17:31:06.777Z,-2.28
2022-11-18T17:33:30.283Z,-2.28
2022-11-18T17:36:01.747Z,-2.28
2022-11-18T17:38:25.405Z,-2.27
2022-11-18T17:40:55.875Z,-2.37
2022-11-18T17:43:19.467Z,-2.41
2022-11-18T17:45:44.353Z,-2.40
2022-11-18T17:48:08.187Z,-2.40
2022-11-18T17:50:31.815Z,-2.42
2022-11-18T17:52:55.394Z,-2.47
2022-11-18T17:55:20.110Z,-2.53
2022-11-18T17:57:43.711Z,-2.53
2022-11-18T18:00:09.234Z,-2.62
2022-11-18T18:02:34.213Z,-2.64
2022-11-18T18:04:58.114Z,-2.64
2022-11-18T18:07:21.712Z,-2.62
2022-11-18T18:09:45.322Z,-2.72
2022-11-18T18:12:23.118Z,-2.76
2022-11-18T18:14:46.690Z,-2.75
2022-11-18T18:17:10.925Z,-2.81
2022-11-18T18:19:36.183Z,-2.85
2022-11-18T18:21:59.773Z,-2.88
2022-11-18T18:24:24.089Z,-2.84
2022-11-18T18:26:48.014Z,-2.80
2022-11-18T18:29:12.637Z,-2.87
2022-11-18T18:31:37.903Z,-2.94
2022-11-18T18:34:01.490Z,-2.91
2022-11-18T18:36:26.530Z,-2.92
2022-11-18T18:38:50.236Z,-2.94
2022-11-18T18:41:16.787Z,-3.03
2022-11-18T18:43:41.094Z,-3.06
2022-11-18T18:46:25.033Z,-3.15
2022-11-18T18:48:48.690Z,-3.07
2022-11-18T18:51:12.246Z,-3.10
2022-11-18T18:53:37.206Z,-3.03
2022-11-18T18:56:00.918Z,-3.10
2022-11-18T18:58:24.553Z,-3.13
2022-11-18T19:00:48.135Z,-3.20
2022-11-18T19:03:11.723Z,-3.17
2022-11-18T19:06:12.199Z,-3.21
2022-11-18T19:08:18.901Z,-3.26
2022-11-18T19:10:43.866Z,-3.31
2022-11-18T19:13:06.800Z,-3.35
2022-11-18T19:15:30.414Z,-3.34
2022-11-18T19:17:54.179Z,-3.26
2022-11-18T19:20:36.769Z,-3.39
2022-11-18T19:23:04.627Z,-3.35
2022-11-18T19:25:32.587Z,-3.44
2022-11-18T19:27:57.775Z,-3.47
2022-11-18T19:30:21.514Z,-3.52
2022-11-18T19:32:45.232Z,-3.45
2022-11-18T19:35:11.250Z,-3.43
2022-11-18T19:37:35.513Z,-3.49
2022-11-18T19:40:05.652Z,-3.56
2022-11-18T19:42:33.308Z,-3.53
2022-11-18T19:44:58.444Z,-3.61
2022-11-18T19:47:22.107Z,-3.61
2022-11-18T19:49:45.761Z,-3.60
2022-11-18T19:52:09.603Z,-3.69
2022-11-18T19:54:33.266Z,-3.75
2022-11-18T19:56:56.889Z,-3.71
2022-11-18T19:59:20.732Z,-3.71
2022-11-18T20:01:45.921Z,-3.73
2022-11-18T20:04:09.837Z,-3.74
2022-11-18T20:06:35.658Z,-3.79
2022-11-18T20:08:59.338Z,-3.79
2022-11-18T20:11:23.836Z,-3.89
2022-11-18T20:13:48.178Z,-3.86
2022-11-18T20:16:15.955Z,-3.93
2022-11-18T20:18:42.265Z,-3.81
2022-11-18T20:21:09.024Z,-3.91
2022-11-18T20:23:32.542Z,-3.96
2022-11-18T20:25:56.170Z,-3.90
2022-11-18T20:28:19.800Z,-3.93
2022-11-18T20:30:43.643Z,-3.94
2022-11-18T20:33:07.189Z,-4.03
2022-11-18T20:35:32.466Z,-4.14
2022-11-18T20:37:56.087Z,-4.09
2022-11-18T20:40:19.868Z,-4.09
2022-11-18T20:43:00.789Z,-4.11
2022-11-18T20:45:24.652Z,-4.09
2022-11-18T20:47:48.216Z,-4.13
2022-11-18T20:50:12.664Z,-4.15
2022-11-18T20:52:37.621Z,-4.18
2022-11-18T20:55:05.418Z,-4.19
2022-11-18T20:57:29.612Z,-4.22
2022-11-18T20:59:53.177Z,-4.23
2022-11-18T21:02:17.032Z,-4.23
2022-11-18T21:04:40.703Z,-4.22
2022-11-18T21:07:04.522Z,-4.25
2022-11-18T21:09:31.918Z,-4.24
2022-11-18T21:11:55.503Z,-4.32
2022-11-18T21:14:23.525Z,-4.30
2022-11-18T21:16:48.742Z,-4.26
2022-11-18T21:19:13.243Z,-4.32
2022-11-18T21:21:45.566Z,-4.32
2022-11-18T21:24:09.754Z,-4.37
2022-11-18T21:26:36.290Z,-4.40
2022-11-18T21:29:02.614Z,-4.41
2022-11-18T21:31:27.583Z,-4.50
2022-11-18T21:33:51.648Z,-4.47
2022-11-18T21:36:15.193Z,-4.48
2022-11-18T21:38:38.757Z,-4.50
2022-11-18T21:41:04.757Z,-4.51
2022-11-18T21:44:03.953Z,-4.49
2022-11-18T21:46:18.524Z,-4.52
2022-11-18T21:48:42.809Z,-4.55
2022-11-18T21:51:09.679Z,-4.51
2022-11-18T21:53:33.619Z,-4.54
2022-11-18T21:56:01.603Z,-4.60
2022-11-18T21:58:25.166Z,-4.65
2022-11-18T22:00:50.338Z,-4.58
2022-11-18T22:03:13.921Z,-4.62
2022-11-18T22:05:37.792Z,-4.63
2022-11-18T22:08:02.086Z,-4.64
2022-11-18T22:10:25.663Z,-4.68
2022-11-18T22:12:51.519Z,-4.72
2022-11-18T22:15:15.272Z,-4.73
2022-11-18T22:17:40.222Z,-4.70
2022-11-18T22:20:03.807Z,-4.76
2022-11-18T22:22:27.429Z,-4.78
2022-11-18T22:24:51.046Z,-4.80
2022-11-18T22:27:14.603Z,-4.78
2022-11-18T22:29:38.259Z,-4.80
2022-11-18T22:32:02.046Z,-4.85
2022-11-18T22:34:28.546Z,-4.85
2022-11-18T22:36:52.102Z,-4.81
2022-11-18T22:39:15.664Z,-4.88
2022-11-18T22:41:56.552Z,-4.90
2022-11-18T22:44:20.122Z,-4.90
2022-11-18T22:46:45.777Z,-4.95
2022-11-18T22:49:11.049Z,-4.98
2022-11-18T22:51:36.833Z,-4.96
2022-11-18T22:54:30.722Z,-5.03
2022-11-18T22:56:44.356Z,-5.03
2022-11-18T22:59:07.904Z,-5.11
2022-11-18T23:01:31.514Z,-5.06
2022-11-18T23:03:55.391Z,-5.07
2022-11-18T23:06:19.083Z,-5.08
2022-11-18T23:08:44.147Z,-5.08
2022-11-18T23:11:10.777Z,-5.16
2022-11-18T23:13:51.977Z,-5.11
2022-11-18T23:16:15.623Z,-5.16
2022-11-18T23:18:39.244Z,-5.19
2022-11-18T23:21:04.677Z,-5.17
2022-11-18T23:23:28.522Z,-5.21
2022-11-18T23:25:53.493Z,-5.32
2022-11-18T23:28:17.023Z,-5.20
2022-11-18T23:30:40.620Z,-5.25
2022-11-18T23:33:04.170Z,-5.36
2022-11-18T23:35:27.801Z,-5.27
2022-11-18T23:37:51.385Z,-5.40
2022-11-18T23:40:15.516Z,-5.35
2022-11-18T23:42:40.437Z,-5.33
2022-11-18T23:45:05.539Z,-5.33
2022-11-18T23:47:29.216Z,-5.35
2022-11-18T23:49:52.785Z,-5.36
2022-11-18T23:52:17.026Z,-5.39
2022-11-18T23:54:40.663Z,-5.37
2022-11-18T23:57:05.600Z,-5.41
2022-11-18T23:59:30.632Z,-5.52
